KSNA

John Wayne-Orange County Airport

Santa Ana, California, USA
METAR KSNA 260353Z 25004KT 10SM FEW030 17/12 A3005 RMK AO2 SLP176 T01670117
Observed Flight Rules
May-26 @ 03:53 UTC (20 minutes ago) Visual Flight Rules
Wind Visibility Clouds
250° at 4 knots 10 miles
  • Few at 3,000' AGL
Temperatures Readings
Current 17°C / 63°F
Dewpoint 12°C / 54°F
Humidity 73%
Altimeter 30.05" Hg
Pressure 1017.6 hPa
Elevation 16
METAR KSNA 260353Z 25004KT 10SM FEW030 17/12 A3005 RMK AO2 SLP176 T01670117
Observed Flight Rules
May-26 @ 03:53 UTC
(20 minutes ago)
VFR
Wind Visibility
250° at 4 knots 10 miles
Clouds
  • Few at 3,000' AGL
Temperature Dewpoint
17°C / 63°F 12°C / 54°F
Humidity Altimeter Pressure
73% 30.05" Hg 1017.6 hPa